createdAt,value
2022-11-29T00:00:03.137Z,101000.55
2022-11-29T00:05:27.164Z,100999.69
2022-11-29T00:10:29.968Z,101005.53
2022-11-29T00:15:36.936Z,101008.48
2022-11-29T00:20:40.045Z,101015.73
2022-11-29T00:25:42.878Z,101011.33
2022-11-29T00:30:45.768Z,101010.30
2022-11-29T00:35:48.689Z,101019.27
2022-11-29T00:40:52.647Z,101012.42
2022-11-29T00:45:55.427Z,101016.42
2022-11-29T00:50:58.483Z,101018.16
2022-11-29T00:56:02.375Z,101012.34
2022-11-29T01:01:06.084Z,101012.17
2022-11-29T01:06:12.441Z,101009.95
2022-11-29T01:11:27.280Z,101011.35
2022-11-29T01:16:31.357Z,101008.11
2022-11-29T01:21:34.383Z,101007.10
2022-11-29T01:26:37.127Z,100998.38
2022-11-29T01:31:39.985Z,100997.54
2022-11-29T01:36:42.778Z,100994.95
2022-11-29T01:41:45.623Z,100994.30
2022-11-29T01:46:49.241Z,100989.51
2022-11-29T01:52:02.653Z,100996.02
2022-11-29T01:57:08.640Z,101002.40
2022-11-29T02:02:35.886Z,100995.38
2022-11-29T02:07:39.325Z,100992.65
2022-11-29T02:13:13.770Z,100989.24
2022-11-29T02:18:37.258Z,100991.30
2022-11-29T02:23:42.808Z,100985.64
2022-11-29T02:29:15.328Z,100986.85
2022-11-29T02:34:44.709Z,100990.63
2022-11-29T02:40:16.123Z,100994.73
2022-11-29T02:45:38.688Z,100996.79
2022-11-29T02:50:50.612Z,100996.28
2022-11-29T02:56:07.226Z,100998.17
2022-11-29T03:01:25.261Z,101001.95
2022-11-29T03:06:43.303Z,101005.38
2022-11-29T03:12:01.839Z,101002.63
2022-11-29T03:17:30.836Z,101002.63
2022-11-29T03:22:52.579Z,101000.73
2022-11-29T03:28:14.936Z,101000.92
2022-11-29T03:33:39.349Z,101007.23
2022-11-29T03:38:46.556Z,101007.59
2022-11-29T03:43:56.729Z,101008.96
2022-11-29T03:49:25.325Z,101010.68
2022-11-29T03:54:55.993Z,101013.07
2022-11-29T04:00:07.500Z,101013.26
2022-11-29T04:05:36.509Z,101017.20
2022-11-29T04:10:58.302Z,101016.02
2022-11-29T04:16:34.747Z,101021.65
2022-11-29T04:21:58.240Z,101021.13
2022-11-29T04:27:29.324Z,101023.71
2022-11-29T04:32:44.415Z,101025.08
2022-11-29T04:38:19.288Z,101031.07
2022-11-29T04:43:40.560Z,101030.40
2022-11-29T04:49:07.342Z,101033.65
2022-11-29T04:54:31.460Z,101036.04
2022-11-29T04:59:47.686Z,101037.06
2022-11-29T05:05:20.015Z,101042.70
2022-11-29T05:10:35.550Z,101050.77
2022-11-29T05:16:03.258Z,101048.38
2022-11-29T05:21:43.316Z,101048.72
2022-11-29T05:26:52.958Z,101051.80
2022-11-29T05:32:14.266Z,101048.04
2022-11-29T05:37:27.293Z,101051.98
2022-11-29T05:42:50.947Z,101052.83
2022-11-29T05:48:24.473Z,101053.33
2022-11-29T05:53:27.477Z,101054.88
2022-11-29T05:59:00.609Z,101056.75
2022-11-29T06:04:16.320Z,101056.23
2022-11-29T06:09:34.251Z,101058.45
2022-11-29T06:14:46.178Z,101058.97
2022-11-29T06:20:04.351Z,101057.94
2022-11-29T06:25:07.126Z,101063.77
2022-11-29T06:30:21.281Z,101074.72
2022-11-29T06:35:48.397Z,101086.54
2022-11-29T06:40:53.999Z,101086.71
2022-11-29T06:46:10.115Z,101098.16
2022-11-29T06:51:39.887Z,101106.21
2022-11-29T06:56:58.375Z,101107.40
2022-11-29T07:02:17.377Z,101108.77
2022-11-29T07:07:22.966Z,101110.30
2022-11-29T07:12:26.896Z,101113.90
2022-11-29T07:17:32.401Z,101117.84
2022-11-29T07:22:55.565Z,101119.55
2022-11-29T07:28:29.226Z,101118.00
2022-11-29T07:33:48.387Z,101120.58
2022-11-29T07:38:51.089Z,101120.23
2022-11-29T07:44:03.315Z,101122.80
2022-11-29T07:49:09.620Z,101123.15
2022-11-29T07:54:17.621Z,101125.88
2022-11-29T07:59:20.655Z,101127.08
2022-11-29T08:04:23.933Z,101124.16
2022-11-29T08:09:26.756Z,101123.63
2022-11-29T08:14:33.209Z,101127.05
2022-11-29T08:19:35.953Z,101133.55
2022-11-29T08:24:39.031Z,101137.84
2022-11-29T08:29:41.855Z,101137.83
2022-11-29T08:34:45.716Z,101149.32
2022-11-29T08:39:48.796Z,101149.34
2022-11-29T08:44:51.587Z,101148.66
2022-11-29T08:50:03.530Z,101149.16
2022-11-29T08:55:07.278Z,101153.96
2022-11-29T09:00:11.357Z,101155.17
2022-11-29T09:05:15.316Z,101155.17
2022-11-29T09:10:18.281Z,101153.98
2022-11-29T09:15:21.083Z,101152.11
2022-11-29T09:20:23.984Z,101148.33
2022-11-29T09:25:27.199Z,101147.63
2022-11-29T09:30:31.716Z,101147.45
2022-11-29T09:35:34.958Z,101144.53
2022-11-29T09:40:46.468Z,101145.38
2022-11-29T09:45:57.206Z,101146.60
2022-11-29T09:51:26.054Z,101145.77
2022-11-29T09:56:41.459Z,101135.83
2022-11-29T10:02:04.487Z,101137.55
2022-11-29T10:07:22.357Z,101137.88
2022-11-29T10:12:52.790Z,101142.69
2022-11-29T10:18:03.439Z,101146.95
2022-11-29T10:23:17.561Z,101141.98
2022-11-29T10:28:27.250Z,101146.25
2022-11-29T10:33:39.164Z,101140.93
2022-11-29T10:38:46.169Z,101145.54
2022-11-29T10:43:51.757Z,101145.34
2022-11-29T10:48:55.073Z,101151.85
2022-11-29T10:54:15.062Z,101154.23
2022-11-29T10:59:23.685Z,101153.01
2022-11-29T11:04:35.707Z,101159.02
2022-11-29T11:09:47.233Z,101162.29
2022-11-29T11:14:52.062Z,101164.52
2022-11-29T11:20:21.359Z,101169.17
2022-11-29T11:25:26.918Z,101167.13
2022-11-29T11:30:29.805Z,101171.41
2022-11-29T11:35:32.624Z,101172.27
2022-11-29T11:40:35.382Z,101170.41
2022-11-29T11:45:38.896Z,101168.35
2022-11-29T11:50:52.157Z,101165.94
2022-11-29T11:55:57.897Z,101166.80
2022-11-29T12:01:23.330Z,101170.91
2022-11-29T12:06:52.150Z,101174.52
2022-11-29T12:12:16.761Z,101174.19
2022-11-29T12:17:23.383Z,101175.20
2022-11-29T12:22:33.028Z,101180.54
2022-11-29T12:27:35.765Z,101178.48
2022-11-29T12:33:06.475Z,101177.30
2022-11-29T12:38:46.890Z,101184.52
2022-11-29T12:44:04.486Z,101179.38
2022-11-29T12:49:43.572Z,101187.27
2022-11-29T12:54:46.558Z,101184.52
2022-11-29T13:00:08.510Z,101179.71
2022-11-29T13:05:11.212Z,101185.89
2022-11-29T13:10:52.533Z,101188.12
2022-11-29T13:16:08.512Z,101193.27
2022-11-29T13:21:20.338Z,101198.24
2022-11-29T13:26:26.323Z,101202.02
2022-11-29T13:31:30.168Z,101205.27
2022-11-29T13:36:57.621Z,101209.23
2022-11-29T13:42:22.033Z,101212.30
2022-11-29T13:47:25.038Z,101215.23
2022-11-29T13:52:27.734Z,101217.96
2022-11-29T13:58:14.954Z,101226.20
2022-11-29T14:03:24.186Z,101226.87
2022-11-29T14:08:42.217Z,101229.77
2022-11-29T14:13:59.535Z,101230.65
2022-11-29T14:19:08.326Z,101228.42
2022-11-29T14:24:35.778Z,101228.42
2022-11-29T14:29:54.189Z,101229.96
2022-11-29T14:35:12.429Z,101231.69
2022-11-29T14:40:33.513Z,101235.46
2022-11-29T14:45:36.840Z,101232.88
2022-11-29T14:50:40.736Z,101235.45
2022-11-29T14:55:43.665Z,101235.09
2022-11-29T15:00:49.228Z,101242.46
2022-11-29T15:06:00.106Z,101246.05
2022-11-29T15:11:11.633Z,101247.08
2022-11-29T15:16:48.362Z,101248.44
2022-11-29T15:22:04.024Z,101249.80
2022-11-29T15:27:07.307Z,101242.95
2022-11-29T15:32:13.717Z,101243.45
2022-11-29T15:37:39.574Z,101246.88
2022-11-29T15:42:47.288Z,101254.08
2022-11-29T15:47:50.040Z,101255.10
2022-11-29T15:52:57.705Z,101258.88
2022-11-29T15:58:08.475Z,101262.48
2022-11-29T16:03:21.527Z,101264.52
2022-11-29T16:08:29.145Z,101266.59
2022-11-29T16:13:33.919Z,101272.40
2022-11-29T16:18:40.891Z,101268.81
2022-11-29T16:23:44.763Z,101269.84
2022-11-29T16:28:51.461Z,101275.85
2022-11-29T16:33:54.646Z,101282.69
2022-11-29T16:39:06.117Z,101284.74
2022-11-29T16:44:50.100Z,101285.27
2022-11-29T16:50:02.343Z,101288.00
2022-11-29T16:55:10.047Z,101292.80
2022-11-29T17:00:45.216Z,101296.91
2022-11-29T17:05:49.262Z,101295.20
2022-11-29T17:10:52.032Z,101294.50
2022-11-29T17:15:54.757Z,101294.52
2022-11-29T17:20:57.939Z,101295.39
2022-11-29T17:26:02.673Z,101300.00
2022-11-29T17:31:10.709Z,101308.91
2022-11-29T17:36:16.731Z,101306.70
2022-11-29T17:41:22.958Z,101310.47
2022-11-29T17:46:31.937Z,101312.70
2022-11-29T17:51:51.627Z,101309.63
2022-11-29T17:56:55.224Z,101310.14
2022-11-29T18:01:58.037Z,101317.84
2022-11-29T18:07:01.655Z,101322.48
2022-11-29T18:12:04.460Z,101321.11
2022-11-29T18:17:07.946Z,101319.23
2022-11-29T18:22:10.881Z,101316.66
2022-11-29T18:27:13.686Z,101319.56
2022-11-29T18:32:16.437Z,101324.02
2022-11-29T18:37:38.984Z,101325.73
2022-11-29T18:42:41.868Z,101323.17
2022-11-29T18:47:45.941Z,101326.26
2022-11-29T18:52:48.733Z,101325.92
2022-11-29T18:57:53.948Z,101320.95
2022-11-29T19:02:56.773Z,101324.73
2022-11-29T19:08:00.343Z,101325.58
2022-11-29T19:13:03.182Z,101324.20
2022-11-29T19:18:06.056Z,101331.23
2022-11-29T19:23:08.872Z,101329.86
2022-11-29T19:28:14.208Z,101329.52
2022-11-29T19:33:17.273Z,101334.84
2022-11-29T19:38:20.097Z,101337.92
2022-11-29T19:43:22.948Z,101340.84
2022-11-29T19:48:25.748Z,101345.63
2022-11-29T19:53:29.560Z,101350.60
2022-11-29T19:58:32.925Z,101352.31
2022-11-29T20:03:35.895Z,101354.71
2022-11-29T20:08:38.723Z,101356.61
2022-11-29T20:13:43.453Z,101358.83
2022-11-29T20:18:51.114Z,101359.68
2022-11-29T20:24:06.592Z,101361.74
2022-11-29T20:29:10.329Z,101363.80
2022-11-29T20:34:15.044Z,101369.97
2022-11-29T20:39:28.789Z,101371.16
2022-11-29T20:44:40.353Z,101368.93
2022-11-29T20:49:43.482Z,101371.34
2022-11-29T20:54:47.221Z,101374.06
2022-11-29T20:59:50.029Z,101376.80
2022-11-29T21:04:52.829Z,101369.77
2022-11-29T21:10:00.941Z,101376.80
2022-11-29T21:15:04.830Z,101377.99
2022-11-29T21:20:09.341Z,101380.23
2022-11-29T21:25:21.162Z,101384.16
2022-11-29T21:30:25.080Z,101389.29
2022-11-29T21:35:27.870Z,101398.67
2022-11-29T21:40:30.670Z,101398.17
2022-11-29T21:45:33.432Z,101399.70
2022-11-29T21:50:36.272Z,101402.10
2022-11-29T21:55:39.073Z,101405.54
2022-11-29T22:00:41.977Z,101403.65
2022-11-29T22:05:44.707Z,101403.83
2022-11-29T22:10:47.979Z,101404.67
2022-11-29T22:15:50.825Z,101407.41
2022-11-29T22:20:54.106Z,101406.70
2022-11-29T22:26:01.916Z,101406.36
2022-11-29T22:31:07.084Z,101402.59
2022-11-29T22:36:12.899Z,101412.01
2022-11-29T22:41:16.646Z,101412.85
2022-11-29T22:46:23.021Z,101414.73
2022-11-29T22:51:31.586Z,101412.16
2022-11-29T22:56:40.572Z,101411.64
2022-11-29T23:01:43.589Z,101412.85
2022-11-29T23:06:46.971Z,101408.55
2022-11-29T23:11:56.250Z,101408.05
2022-11-29T23:16:59.257Z,101409.59
2022-11-29T23:22:02.537Z,101408.91
2022-11-29T23:27:05.456Z,101417.13
2022-11-29T23:32:08.307Z,101410.44
2022-11-29T23:37:11.049Z,101405.83
2022-11-29T23:42:13.758Z,101403.95
2022-11-29T23:47:16.587Z,101403.59
2022-11-29T23:52:19.337Z,101405.33
2022-11-29T23:57:22.157Z,101405.83
